sensor_id;sensor_type;location;lat;lon;timestamp;P1;durP1;ratioP1;P2;durP2;ratioP2
69951;SDS011;60406;48.408;13.392;2023-08-06T00:01:32;20.02;;;14.77;;
69951;SDS011;60406;48.408;13.392;2023-08-06T00:06:52;19.58;;;15.90;;
69951;SDS011;60406;48.408;13.392;2023-08-06T00:12:11;17.90;;;14.77;;
69951;SDS011;60406;48.408;13.392;2023-08-06T00:17:31;21.67;;;15.60;;
69951;SDS011;60406;48.408;13.392;2023-08-06T00:22:50;19.33;;;17.00;;
69951;SDS011;60406;48.408;13.392;2023-08-06T00:28:09;19.23;;;17.27;;
69951;SDS011;60406;48.408;13.392;2023-08-06T00:33:29;18.67;;;16.83;;
69951;SDS011;60406;48.408;13.392;2023-08-06T00:38:48;18.98;;;16.52;;
69951;SDS011;60406;48.408;13.392;2023-08-06T00:44:08;22.63;;;18.13;;
69951;SDS011;60406;48.408;13.392;2023-08-06T00:49:27;18.60;;;16.60;;
69951;SDS011;60406;48.408;13.392;2023-08-06T00:54:47;23.42;;;16.95;;
69951;SDS011;60406;48.408;13.392;2023-08-06T01:00:07;18.38;;;16.50;;
69951;SDS011;60406;48.408;13.392;2023-08-06T01:05:27;19.23;;;15.27;;
69951;SDS011;60406;48.408;13.392;2023-08-06T01:16:20;20.08;;;16.67;;
69951;SDS011;60406;48.408;13.392;2023-08-06T01:21:40;19.67;;;17.58;;
69951;SDS011;60406;48.408;13.392;2023-08-06T01:27:14;22.08;;;18.35;;
69951;SDS011;60406;48.408;13.392;2023-08-06T01:32:37;19.35;;;16.77;;
69951;SDS011;60406;48.408;13.392;2023-08-06T01:37:59;22.35;;;19.00;;
69951;SDS011;60406;48.408;13.392;2023-08-06T01:43:20;25.30;;;21.58;;
69951;SDS011;60406;48.408;13.392;2023-08-06T01:48:39;29.63;;;22.77;;
69951;SDS011;60406;48.408;13.392;2023-08-06T01:53:59;28.10;;;21.92;;
69951;SDS011;60406;48.408;13.392;2023-08-06T01:59:18;31.02;;;23.58;;
69951;SDS011;60406;48.408;13.392;2023-08-06T02:04:38;30.17;;;22.50;;
69951;SDS011;60406;48.408;13.392;2023-08-06T02:09:57;27.23;;;21.80;;
69951;SDS011;60406;48.408;13.392;2023-08-06T02:15:16;28.42;;;22.50;;
69951;SDS011;60406;48.408;13.392;2023-08-06T02:20:36;23.15;;;19.95;;
69951;SDS011;60406;48.408;13.392;2023-08-06T02:25:59;20.73;;;17.50;;
69951;SDS011;60406;48.408;13.392;2023-08-06T02:31:22;19.40;;;14.32;;
69951;SDS011;60406;48.408;13.392;2023-08-06T02:36:41;13.50;;;11.77;;
69951;SDS011;60406;48.408;13.392;2023-08-06T02:42:01;14.52;;;11.07;;
69951;SDS011;60406;48.408;13.392;2023-08-06T02:47:21;11.93;;;10.52;;
69951;SDS011;60406;48.408;13.392;2023-08-06T02:52:22;15.60;;;10.70;;
69951;SDS011;60406;48.408;13.392;2023-08-06T02:57:23;15.93;;;11.43;;
69951;SDS011;60406;48.408;13.392;2023-08-06T03:02:23;14.65;;;10.88;;
69951;SDS011;60406;48.408;13.392;2023-08-06T03:07:24;14.60;;;11.38;;
69951;SDS011;60406;48.408;13.392;2023-08-06T03:12:25;13.05;;;11.15;;
69951;SDS011;60406;48.408;13.392;2023-08-06T03:17:26;13.85;;;10.85;;
69951;SDS011;60406;48.408;13.392;2023-08-06T03:22:27;12.20;;;10.82;;
69951;SDS011;60406;48.408;13.392;2023-08-06T03:27:28;12.57;;;10.13;;
69951;SDS011;60406;48.408;13.392;2023-08-06T03:32:29;11.23;;;9.18;;
69951;SDS011;60406;48.408;13.392;2023-08-06T03:37:30;14.07;;;10.02;;
69951;SDS011;60406;48.408;13.392;2023-08-06T03:42:30;8.40;;;7.50;;
69951;SDS011;60406;48.408;13.392;2023-08-06T03:47:31;8.48;;;7.57;;
69951;SDS011;60406;48.408;13.392;2023-08-06T03:52:32;8.38;;;6.65;;
69951;SDS011;60406;48.408;13.392;2023-08-06T03:57:33;8.27;;;7.35;;
69951;SDS011;60406;48.408;13.392;2023-08-06T04:02:34;9.40;;;8.40;;
69951;SDS011;60406;48.408;13.392;2023-08-06T04:07:35;8.57;;;7.68;;
69951;SDS011;60406;48.408;13.392;2023-08-06T04:12:35;8.10;;;7.18;;
69951;SDS011;60406;48.408;13.392;2023-08-06T04:17:36;9.23;;;7.05;;
69951;SDS011;60406;48.408;13.392;2023-08-06T04:22:37;9.95;;;7.97;;
69951;SDS011;60406;48.408;13.392;2023-08-06T04:27:38;7.90;;;7.10;;
69951;SDS011;60406;48.408;13.392;2023-08-06T04:32:39;9.55;;;7.55;;
69951;SDS011;60406;48.408;13.392;2023-08-06T04:37:40;7.50;;;6.57;;
69951;SDS011;60406;48.408;13.392;2023-08-06T04:42:41;6.03;;;5.43;;
69951;SDS011;60406;48.408;13.392;2023-08-06T04:47:42;7.47;;;6.10;;
69951;SDS011;60406;48.408;13.392;2023-08-06T04:52:43;9.40;;;6.10;;
69951;SDS011;60406;48.408;13.392;2023-08-06T04:57:44;7.80;;;6.30;;
69951;SDS011;60406;48.408;13.392;2023-08-06T05:02:45;7.30;;;5.03;;
69951;SDS011;60406;48.408;13.392;2023-08-06T05:07:49;4.75;;;4.25;;
69951;SDS011;60406;48.408;13.392;2023-08-06T05:12:50;5.18;;;4.68;;
69951;SDS011;60406;48.408;13.392;2023-08-06T05:17:51;7.35;;;4.72;;
69951;SDS011;60406;48.408;13.392;2023-08-06T05:22:52;5.40;;;4.90;;
69951;SDS011;60406;48.408;13.392;2023-08-06T05:27:53;5.85;;;5.20;;
69951;SDS011;60406;48.408;13.392;2023-08-06T05:32:54;5.93;;;4.60;;
69951;SDS011;60406;48.408;13.392;2023-08-06T05:37:55;4.85;;;4.43;;
69951;SDS011;60406;48.408;13.392;2023-08-06T05:42:55;4.85;;;4.10;;
69951;SDS011;60406;48.408;13.392;2023-08-06T05:47:56;5.25;;;4.75;;
69951;SDS011;60406;48.408;13.392;2023-08-06T05:52:57;5.10;;;4.60;;
69951;SDS011;60406;48.408;13.392;2023-08-06T05:57:58;10.52;;;5.18;;
69951;SDS011;60406;48.408;13.392;2023-08-06T06:02:59;6.53;;;5.20;;
69951;SDS011;60406;48.408;13.392;2023-08-06T06:08:00;6.93;;;4.65;;
69951;SDS011;60406;48.408;13.392;2023-08-06T06:13:01;6.00;;;5.07;;
69951;SDS011;60406;48.408;13.392;2023-08-06T06:18:01;7.50;;;5.00;;
69951;SDS011;60406;48.408;13.392;2023-08-06T06:23:02;6.10;;;5.05;;
69951;SDS011;60406;48.408;13.392;2023-08-06T06:28:03;6.65;;;6.03;;
69951;SDS011;60406;48.408;13.392;2023-08-06T06:33:04;6.45;;;5.85;;
69951;SDS011;60406;48.408;13.392;2023-08-06T06:38:05;10.07;;;6.13;;
69951;SDS011;60406;48.408;13.392;2023-08-06T06:43:06;5.78;;;5.20;;
69951;SDS011;60406;48.408;13.392;2023-08-06T06:48:07;7.15;;;6.45;;
69951;SDS011;60406;48.408;13.392;2023-08-06T06:53:07;9.27;;;6.38;;
69951;SDS011;60406;48.408;13.392;2023-08-06T06:58:08;9.00;;;6.93;;
69951;SDS011;60406;48.408;13.392;2023-08-06T07:03:09;5.57;;;5.03;;
69951;SDS011;60406;48.408;13.392;2023-08-06T07:08:10;6.22;;;5.63;;
69951;SDS011;60406;48.408;13.392;2023-08-06T07:13:11;7.82;;;6.30;;
69951;SDS011;60406;48.408;13.392;2023-08-06T07:18:12;8.95;;;6.78;;
69951;SDS011;60406;48.408;13.392;2023-08-06T07:23:12;8.10;;;7.00;;
69951;SDS011;60406;48.408;13.392;2023-08-06T07:28:14;7.07;;;6.40;;
69951;SDS011;60406;48.408;13.392;2023-08-06T07:33:15;7.65;;;6.95;;
69951;SDS011;60406;48.408;13.392;2023-08-06T07:38:16;7.90;;;6.22;;
69951;SDS011;60406;48.408;13.392;2023-08-06T07:43:16;8.95;;;6.63;;
69951;SDS011;60406;48.408;13.392;2023-08-06T07:48:17;6.90;;;5.03;;
69951;SDS011;60406;48.408;13.392;2023-08-06T07:53:19;6.05;;;5.40;;
69951;SDS011;60406;48.408;13.392;2023-08-06T07:58:23;8.63;;;5.72;;
69951;SDS011;60406;48.408;13.392;2023-08-06T08:03:24;4.63;;;4.20;;
69951;SDS011;60406;48.408;13.392;2023-08-06T08:08:25;4.18;;;3.70;;
69951;SDS011;60406;48.408;13.392;2023-08-06T08:13:26;5.20;;;3.58;;
69951;SDS011;60406;48.408;13.392;2023-08-06T08:18:27;4.20;;;3.65;;
69951;SDS011;60406;48.408;13.392;2023-08-06T08:23:28;7.60;;;4.82;;
69951;SDS011;60406;48.408;13.392;2023-08-06T08:28:47;4.43;;;3.67;;
69951;SDS011;60406;48.408;13.392;2023-08-06T08:34:07;3.95;;;2.67;;
69951;SDS011;60406;48.408;13.392;2023-08-06T08:39:27;4.00;;;2.88;;
69951;SDS011;60406;48.408;13.392;2023-08-06T08:44:46;2.72;;;2.25;;
69951;SDS011;60406;48.408;13.392;2023-08-06T08:50:06;4.18;;;2.40;;
69951;SDS011;60406;48.408;13.392;2023-08-06T08:55:26;6.57;;;2.97;;
69951;SDS011;60406;48.408;13.392;2023-08-06T09:00:46;3.35;;;2.40;;
69951;SDS011;60406;48.408;13.392;2023-08-06T09:06:05;3.15;;;2.38;;
69951;SDS011;60406;48.408;13.392;2023-08-06T09:11:25;3.30;;;2.78;;
69951;SDS011;60406;48.408;13.392;2023-08-06T09:16:45;3.28;;;2.45;;
69951;SDS011;60406;48.408;13.392;2023-08-06T09:22:05;3.70;;;2.20;;
69951;SDS011;60406;48.408;13.392;2023-08-06T09:27:24;3.97;;;2.70;;
69951;SDS011;60406;48.408;13.392;2023-08-06T09:32:47;1.92;;;1.63;;
69951;SDS011;60406;48.408;13.392;2023-08-06T09:43:27;3.10;;;1.73;;
69951;SDS011;60406;48.408;13.392;2023-08-06T09:48:47;2.42;;;1.45;;
69951;SDS011;60406;48.408;13.392;2023-08-06T09:54:06;1.80;;;1.17;;
69951;SDS011;60406;48.408;13.392;2023-08-06T09:59:26;2.22;;;1.10;;
69951;SDS011;60406;48.408;13.392;2023-08-06T10:04:46;4.30;;;1.08;;
69951;SDS011;60406;48.408;13.392;2023-08-06T10:10:06;2.28;;;0.60;;
69951;SDS011;60406;48.408;13.392;2023-08-06T10:15:26;1.27;;;0.82;;
69951;SDS011;60406;48.408;13.392;2023-08-06T10:20:47;1.42;;;0.80;;
69951;SDS011;60406;48.408;13.392;2023-08-06T10:26:07;1.15;;;0.70;;
69951;SDS011;60406;48.408;13.392;2023-08-06T10:37:14;5.65;;;2.20;;
69951;SDS011;60406;48.408;13.392;2023-08-06T10:42:34;0.68;;;0.60;;
69951;SDS011;60406;48.408;13.392;2023-08-06T10:47:54;0.80;;;0.65;;
69951;SDS011;60406;48.408;13.392;2023-08-06T10:53:14;0.50;;;0.50;;
69951;SDS011;60406;48.408;13.392;2023-08-06T10:58:33;1.30;;;1.20;;
69951;SDS011;60406;48.408;13.392;2023-08-06T11:03:54;1.10;;;0.55;;
69951;SDS011;60406;48.408;13.392;2023-08-06T11:09:14;1.42;;;0.70;;
69951;SDS011;60406;48.408;13.392;2023-08-06T11:14:33;2.67;;;0.80;;
69951;SDS011;60406;48.408;13.392;2023-08-06T11:19:53;1.40;;;1.10;;
69951;SDS011;60406;48.408;13.392;2023-08-06T11:25:12;1.35;;;1.23;;
69951;SDS011;60406;48.408;13.392;2023-08-06T11:30:32;2.95;;;0.90;;
69951;SDS011;60406;48.408;13.392;2023-08-06T11:35:52;0.88;;;0.70;;
69951;SDS011;60406;48.408;13.392;2023-08-06T11:41:11;0.50;;;0.50;;
69951;SDS011;60406;48.408;13.392;2023-08-06T11:46:53;1.55;;;0.50;;
69951;SDS011;60406;48.408;13.392;2023-08-06T11:57:37;0.87;;;0.60;;
69951;SDS011;60406;48.408;13.392;2023-08-06T12:02:57;0.15;;;0.15;;
69951;SDS011;60406;48.408;13.392;2023-08-06T12:08:17;0.32;;;0.32;;
69951;SDS011;60406;48.408;13.392;2023-08-06T12:13:37;0.60;;;0.47;;
69951;SDS011;60406;48.408;13.392;2023-08-06T12:18:57;0.20;;;0.20;;
69951;SDS011;60406;48.408;13.392;2023-08-06T12:24:16;1.90;;;0.30;;
69951;SDS011;60406;48.408;13.392;2023-08-06T12:29:37;0.20;;;0.20;;
69951;SDS011;60406;48.408;13.392;2023-08-06T12:40:19;0.98;;;0.28;;
69951;SDS011;60406;48.408;13.392;2023-08-06T12:45:38;0.50;;;0.30;;
69951;SDS011;60406;48.408;13.392;2023-08-06T12:50:58;2.50;;;0.30;;
69951;SDS011;60406;48.408;13.392;2023-08-06T12:56:17;2.83;;;1.50;;
69951;SDS011;60406;48.408;13.392;2023-08-06T13:01:37;1.80;;;0.20;;
69951;SDS011;60406;48.408;13.392;2023-08-06T13:06:57;0.85;;;0.57;;
69951;SDS011;60406;48.408;13.392;2023-08-06T13:12:17;0.77;;;0.50;;
69951;SDS011;60406;48.408;13.392;2023-08-06T13:17:36;0.35;;;0.30;;
69951;SDS011;60406;48.408;13.392;2023-08-06T13:22:57;0.25;;;0.25;;
69951;SDS011;60406;48.408;13.392;2023-08-06T13:28:17;0.68;;;0.32;;
69951;SDS011;60406;48.408;13.392;2023-08-06T13:33:37;0.93;;;0.32;;
69951;SDS011;60406;48.408;13.392;2023-08-06T13:38:57;0.60;;;0.20;;
69951;SDS011;60406;48.408;13.392;2023-08-06T13:44:16;0.20;;;0.20;;
69951;SDS011;60406;48.408;13.392;2023-08-06T13:49:36;1.45;;;0.25;;
69951;SDS011;60406;48.408;13.392;2023-08-06T13:54:55;3.92;;;0.28;;
69951;SDS011;60406;48.408;13.392;2023-08-06T14:00:14;0.20;;;0.10;;
69951;SDS011;60406;48.408;13.392;2023-08-06T14:05:34;1.27;;;0.20;;
69951;SDS011;60406;48.408;13.392;2023-08-06T14:10:53;0.20;;;0.20;;
69951;SDS011;60406;48.408;13.392;2023-08-06T14:16:13;0.43;;;0.20;;
69951;SDS011;60406;48.408;13.392;2023-08-06T14:21:33;0.20;;;0.10;;
69951;SDS011;60406;48.408;13.392;2023-08-06T14:26:52;0.45;;;0.20;;
69951;SDS011;60406;48.408;13.392;2023-08-06T14:32:12;0.43;;;0.10;;
69951;SDS011;60406;48.408;13.392;2023-08-06T14:37:31;0.30;;;0.30;;
69951;SDS011;60406;48.408;13.392;2023-08-06T14:42:51;0.20;;;0.10;;
69951;SDS011;60406;48.408;13.392;2023-08-06T14:48:10;2.58;;;0.32;;
69951;SDS011;60406;48.408;13.392;2023-08-06T14:53:30;0.20;;;0.20;;
69951;SDS011;60406;48.408;13.392;2023-08-06T14:58:50;1.80;;;0.20;;
69951;SDS011;60406;48.408;13.392;2023-08-06T15:04:09;0.55;;;0.20;;
69951;SDS011;60406;48.408;13.392;2023-08-06T15:09:29;0.10;;;0.10;;
69951;SDS011;60406;48.408;13.392;2023-08-06T15:14:48;0.35;;;0.25;;
69951;SDS011;60406;48.408;13.392;2023-08-06T15:20:08;0.20;;;0.20;;
69951;SDS011;60406;48.408;13.392;2023-08-06T15:25:27;0.30;;;0.13;;
69951;SDS011;60406;48.408;13.392;2023-08-06T15:30:50;0.10;;;0.10;;
69951;SDS011;60406;48.408;13.392;2023-08-06T15:36:10;1.20;;;0.20;;
69951;SDS011;60406;48.408;13.392;2023-08-06T15:41:30;2.08;;;0.30;;
69951;SDS011;60406;48.408;13.392;2023-08-06T15:46:49;0.13;;;0.13;;
69951;SDS011;60406;48.408;13.392;2023-08-06T15:52:09;0.10;;;0.10;;
69951;SDS011;60406;48.408;13.392;2023-08-06T15:57:28;0.30;;;0.20;;
69951;SDS011;60406;48.408;13.392;2023-08-06T16:02:48;5.72;;;1.00;;
69951;SDS011;60406;48.408;13.392;2023-08-06T16:08:07;3.30;;;0.40;;
69951;SDS011;60406;48.408;13.392;2023-08-06T16:13:27;0.63;;;0.40;;
69951;SDS011;60406;48.408;13.392;2023-08-06T16:18:46;0.57;;;0.30;;
69951;SDS011;60406;48.408;13.392;2023-08-06T16:24:06;0.55;;;0.47;;
69951;SDS011;60406;48.408;13.392;2023-08-06T16:29:26;1.27;;;0.20;;
69951;SDS011;60406;48.408;13.392;2023-08-06T16:34:45;0.55;;;0.45;;
69951;SDS011;60406;48.408;13.392;2023-08-06T16:40:05;0.65;;;0.45;;
69951;SDS011;60406;48.408;13.392;2023-08-06T16:45:25;0.85;;;0.20;;
69951;SDS011;60406;48.408;13.392;2023-08-06T16:50:48;1.75;;;0.30;;
69951;SDS011;60406;48.408;13.392;2023-08-06T16:56:09;0.40;;;0.40;;
69951;SDS011;60406;48.408;13.392;2023-08-06T17:01:31;0.68;;;0.40;;
69951;SDS011;60406;48.408;13.392;2023-08-06T17:06:51;0.40;;;0.40;;
69951;SDS011;60406;48.408;13.392;2023-08-06T17:12:10;1.60;;;0.47;;
69951;SDS011;60406;48.408;13.392;2023-08-06T17:17:30;1.13;;;0.70;;
69951;SDS011;60406;48.408;13.392;2023-08-06T17:22:50;0.50;;;0.50;;
69951;SDS011;60406;48.408;13.392;2023-08-06T17:28:10;0.75;;;0.75;;
69951;SDS011;60406;48.408;13.392;2023-08-06T17:33:30;0.30;;;0.30;;
69951;SDS011;60406;48.408;13.392;2023-08-06T17:38:49;1.17;;;0.65;;
69951;SDS011;60406;48.408;13.392;2023-08-06T17:44:09;1.65;;;0.60;;
69951;SDS011;60406;48.408;13.392;2023-08-06T17:49:29;0.93;;;0.45;;
69951;SDS011;60406;48.408;13.392;2023-08-06T17:54:48;0.80;;;0.80;;
69951;SDS011;60406;48.408;13.392;2023-08-06T18:00:08;4.43;;;1.20;;
69951;SDS011;60406;48.408;13.392;2023-08-06T18:05:28;0.73;;;0.65;;
69951;SDS011;60406;48.408;13.392;2023-08-06T18:10:47;1.48;;;0.65;;
69951;SDS011;60406;48.408;13.392;2023-08-06T18:16:07;5.65;;;0.90;;
69951;SDS011;60406;48.408;13.392;2023-08-06T18:21:26;1.02;;;0.80;;
69951;SDS011;60406;48.408;13.392;2023-08-06T18:26:46;2.33;;;0.82;;
69951;SDS011;60406;48.408;13.392;2023-08-06T18:32:06;0.90;;;0.68;;
69951;SDS011;60406;48.408;13.392;2023-08-06T18:37:26;0.88;;;0.75;;
69951;SDS011;60406;48.408;13.392;2023-08-06T18:42:45;2.17;;;0.57;;
69951;SDS011;60406;48.408;13.392;2023-08-06T18:48:08;0.47;;;0.47;;
69951;SDS011;60406;48.408;13.392;2023-08-06T18:53:27;1.70;;;0.88;;
69951;SDS011;60406;48.408;13.392;2023-08-06T18:58:46;0.43;;;0.40;;
69951;SDS011;60406;48.408;13.392;2023-08-06T19:04:06;0.50;;;0.50;;
69951;SDS011;60406;48.408;13.392;2023-08-06T19:09:25;0.50;;;0.50;;
69951;SDS011;60406;48.408;13.392;2023-08-06T19:14:45;1.10;;;0.43;;
69951;SDS011;60406;48.408;13.392;2023-08-06T19:20:05;0.40;;;0.40;;
69951;SDS011;60406;48.408;13.392;2023-08-06T19:25:24;0.63;;;0.47;;
69951;SDS011;60406;48.408;13.392;2023-08-06T19:30:44;0.43;;;0.30;;
69951;SDS011;60406;48.408;13.392;2023-08-06T19:36:03;1.05;;;0.60;;
69951;SDS011;60406;48.408;13.392;2023-08-06T19:41:23;0.28;;;0.28;;
69951;SDS011;60406;48.408;13.392;2023-08-06T19:46:43;0.43;;;0.40;;
69951;SDS011;60406;48.408;13.392;2023-08-06T19:52:02;0.25;;;0.25;;
69951;SDS011;60406;48.408;13.392;2023-08-06T19:57:22;2.72;;;0.52;;
69951;SDS011;60406;48.408;13.392;2023-08-06T20:02:42;0.40;;;0.40;;
69951;SDS011;60406;48.408;13.392;2023-08-06T20:08:01;1.35;;;0.65;;
69951;SDS011;60406;48.408;13.392;2023-08-06T20:13:21;0.43;;;0.40;;
69951;SDS011;60406;48.408;13.392;2023-08-06T20:18:40;1.25;;;0.60;;
69951;SDS011;60406;48.408;13.392;2023-08-06T20:24:00;0.60;;;0.60;;
69951;SDS011;60406;48.408;13.392;2023-08-06T20:29:19;1.15;;;0.70;;
69951;SDS011;60406;48.408;13.392;2023-08-06T20:34:39;1.17;;;0.52;;
69951;SDS011;60406;48.408;13.392;2023-08-06T20:39:59;0.82;;;0.68;;
69951;SDS011;60406;48.408;13.392;2023-08-06T20:45:18;0.90;;;0.60;;
69951;SDS011;60406;48.408;13.392;2023-08-06T20:50:41;1.38;;;0.77;;
69951;SDS011;60406;48.408;13.392;2023-08-06T20:56:00;0.63;;;0.50;;
69951;SDS011;60406;48.408;13.392;2023-08-06T21:01:21;4.28;;;0.70;;
69951;SDS011;60406;48.408;13.392;2023-08-06T21:06:41;0.60;;;0.60;;
69951;SDS011;60406;48.408;13.392;2023-08-06T21:12:01;3.63;;;0.80;;
69951;SDS011;60406;48.408;13.392;2023-08-06T21:17:20;0.80;;;0.68;;
69951;SDS011;60406;48.408;13.392;2023-08-06T21:22:39;0.80;;;0.70;;
69951;SDS011;60406;48.408;13.392;2023-08-06T21:27:59;0.93;;;0.70;;
69951;SDS011;60406;48.408;13.392;2023-08-06T21:33:18;1.00;;;0.57;;
69951;SDS011;60406;48.408;13.392;2023-08-06T21:38:38;1.10;;;0.95;;
69951;SDS011;60406;48.408;13.392;2023-08-06T21:43:58;0.80;;;0.70;;
69951;SDS011;60406;48.408;13.392;2023-08-06T21:49:17;3.38;;;0.70;;
69951;SDS011;60406;48.408;13.392;2023-08-06T21:54:37;0.68;;;0.68;;
69951;SDS011;60406;48.408;13.392;2023-08-06T21:59:57;1.00;;;0.90;;
69951;SDS011;60406;48.408;13.392;2023-08-06T22:05:16;2.10;;;1.00;;
69951;SDS011;60406;48.408;13.392;2023-08-06T22:10:36;1.85;;;0.90;;
69951;SDS011;60406;48.408;13.392;2023-08-06T22:15:55;1.05;;;0.70;;
69951;SDS011;60406;48.408;13.392;2023-08-06T22:21:15;1.38;;;0.90;;
69951;SDS011;60406;48.408;13.392;2023-08-06T22:26:34;2.45;;;1.00;;
69951;SDS011;60406;48.408;13.392;2023-08-06T22:31:54;2.17;;;0.90;;
69951;SDS011;60406;48.408;13.392;2023-08-06T22:37:13;2.95;;;1.27;;
69951;SDS011;60406;48.408;13.392;2023-08-06T22:42:33;3.25;;;1.20;;
69951;SDS011;60406;48.408;13.392;2023-08-06T22:47:52;1.75;;;0.73;;
69951;SDS011;60406;48.408;13.392;2023-08-06T22:53:12;4.63;;;1.00;;
69951;SDS011;60406;48.408;13.392;2023-08-06T22:58:31;2.35;;;1.85;;
69951;SDS011;60406;48.408;13.392;2023-08-06T23:03:51;2.95;;;1.25;;
69951;SDS011;60406;48.408;13.392;2023-08-06T23:09:10;2.20;;;1.20;;
69951;SDS011;60406;48.408;13.392;2023-08-06T23:14:30;2.58;;;1.10;;
69951;SDS011;60406;48.408;13.392;2023-08-06T23:19:49;1.83;;;1.10;;
69951;SDS011;60406;48.408;13.392;2023-08-06T23:25:09;1.95;;;1.10;;
69951;SDS011;60406;48.408;13.392;2023-08-06T23:30:28;3.20;;;1.30;;
69951;SDS011;60406;48.408;13.392;2023-08-06T23:35:48;2.70;;;1.27;;
69951;SDS011;60406;48.408;13.392;2023-08-06T23:41:07;1.75;;;1.20;;
69951;SDS011;60406;48.408;13.392;2023-08-06T23:46:27;1.63;;;1.20;;
69951;SDS011;60406;48.408;13.392;2023-08-06T23:51:46;2.15;;;1.23;;
69951;SDS011;60406;48.408;13.392;2023-08-06T23:57:06;1.90;;;1.23;;
